Braunton, United Kingdom
Current Conditions -  °F | °C
As of 2:50 AM on Tuesday 23 Dec 2014 (Local Time) from EGDX Reporting Station
Moderate Rain Moderate Rain  
Wind Chill: 11°   Ceiling: 4100
Heat Index: 11°   Visibility: 6mi
Dew Point:   Wind: 24mph
Humidity: 88%   Direction: 250°WSW
Pressure: 30.06"   Gusts: NA
Location:  51.11°N, 4.16°W
Report Text: EGDX 230250Z AUTO 25021KT 9999 RADZ SCT016/// BKN041/// 11/09 Q1018
Loading
Personal Weather Stations






























Interactive Weather Map New forecast layout! Learn more

10-Day Weather Forecast

Advertisements
Track Severe Weather on mobile